Terminal Aerodrome Forecast
Issued by NWS

Home | Current Version | Previous Version | Text Only | Print | Product List | Glossary On
Versions: 1 2 3 4 5 6 7 8 9 10 11 12 13 14 15 16 17 18 19 20 21 22 23 24
697
FTUS44 KOHX 251738
TAFCKV
TAF
KCKV 251738Z 2518/2618 18018G28KT P6SM VCSH BKN040
     FM252000 18013G23KT P6SM VCSH BKN035
      TEMPO 2520/2523 3SM -TSRA BR OVC030CB
     FM260800 17009KT P6SM OVC025=

USA.gov is the U.S. government's official web portal to all federal, state and local government web resources and services.